createdAt,value
2023-04-03T00:00:04.396Z,0.70
2023-04-03T00:02:06.293Z,0.70
2023-04-03T00:04:08.192Z,1.05
2023-04-03T00:06:11.807Z,0.50
2023-04-03T00:08:14.057Z,0.98
2023-04-03T00:10:16.622Z,0.63
2023-04-03T00:12:18.538Z,0.68
2023-04-03T00:14:20.737Z,0.90
2023-04-03T00:16:22.549Z,0.63
2023-04-03T00:18:24.420Z,1.08
2023-04-03T00:20:27.140Z,1.10
2023-04-03T00:22:29.769Z,0.90
2023-04-03T00:24:31.547Z,1.20
2023-04-03T00:26:33.486Z,1.23
2023-04-03T00:28:35.543Z,1.42
2023-04-03T00:30:37.925Z,0.98
2023-04-03T00:32:40.017Z,1.50
2023-04-03T00:34:41.820Z,1.10
2023-04-03T00:36:43.776Z,1.23
2023-04-03T00:38:45.613Z,1.08
2023-04-03T00:40:49.754Z,0.80
2023-04-03T00:42:57.758Z,0.80
2023-04-03T00:45:01.851Z,0.88
2023-04-03T00:47:06.974Z,0.90
2023-04-03T00:49:08.855Z,1.20
2023-04-03T00:51:15.686Z,0.82
2023-04-03T00:53:22.931Z,1.67
2023-04-03T00:55:25.033Z,0.77
2023-04-03T00:57:28.015Z,0.85
2023-04-03T00:59:34.604Z,0.80
2023-04-03T01:01:39.374Z,1.10
2023-04-03T01:03:41.448Z,1.10
2023-04-03T01:05:43.285Z,1.17
2023-04-03T01:07:46.166Z,0.65
2023-04-03T01:09:52.758Z,1.25
2023-04-03T01:11:54.576Z,0.80
2023-04-03T01:13:56.446Z,1.40
2023-04-03T01:15:58.733Z,0.93
2023-04-03T01:18:03.951Z,0.98
2023-04-03T01:20:12.840Z,1.42
2023-04-03T01:22:27.108Z,1.30
2023-04-03T01:24:36.385Z,1.98
2023-04-03T01:26:38.307Z,1.30
2023-04-03T01:28:40.094Z,1.13
2023-04-03T01:30:50.039Z,0.77
2023-04-03T01:32:51.843Z,1.10
2023-04-03T01:34:53.688Z,0.68
2023-04-03T01:36:56.022Z,1.20
2023-04-03T01:39:00.234Z,1.20
2023-04-03T01:41:02.218Z,0.90
2023-04-03T01:43:07.228Z,1.13
2023-04-03T01:45:10.028Z,1.15
2023-04-03T01:47:11.862Z,1.38
2023-04-03T01:49:13.673Z,1.02
2023-04-03T01:51:15.618Z,0.80
2023-04-03T01:53:17.515Z,0.80
2023-04-03T01:55:19.938Z,1.30
2023-04-03T01:57:21.795Z,1.42
2023-04-03T01:59:23.704Z,0.82
2023-04-03T02:01:27.045Z,1.38
2023-04-03T02:03:28.972Z,1.17
2023-04-03T02:05:31.188Z,1.20
2023-04-03T02:07:33.168Z,1.00
2023-04-03T02:09:34.935Z,1.40
2023-04-03T02:11:36.853Z,0.70
2023-04-03T02:13:38.616Z,1.17
2023-04-03T02:15:40.752Z,1.02
2023-04-03T02:17:42.681Z,1.40
2023-04-03T02:19:44.553Z,1.38
2023-04-03T02:21:46.290Z,1.00
2023-04-03T02:23:48.110Z,1.25
2023-04-03T02:25:50.314Z,1.05
2023-04-03T02:27:52.282Z,1.45
2023-04-03T02:29:54.215Z,1.10
2023-04-03T02:31:56.362Z,1.33
2023-04-03T02:33:58.141Z,1.02
2023-04-03T02:36:00.422Z,0.90
2023-04-03T02:38:02.272Z,0.85
2023-04-03T02:40:05.729Z,1.23
2023-04-03T02:42:08.370Z,1.00
2023-04-03T02:44:13.356Z,1.50
2023-04-03T02:46:16.658Z,2.03
2023-04-03T02:48:18.629Z,1.00
2023-04-03T02:50:20.393Z,0.85
2023-04-03T02:52:22.259Z,1.15
2023-04-03T02:54:25.500Z,1.33
2023-04-03T02:56:27.873Z,1.15
2023-04-03T02:58:29.650Z,0.98
2023-04-03T03:00:31.645Z,0.93
2023-04-03T03:02:33.464Z,0.90
2023-04-03T03:04:37.914Z,1.02
2023-04-03T03:06:39.853Z,1.30
2023-04-03T03:08:42.376Z,1.38
2023-04-03T03:10:46.028Z,1.33
2023-04-03T03:12:47.870Z,1.00
2023-04-03T03:14:49.766Z,0.95
2023-04-03T03:16:51.681Z,1.13
2023-04-03T03:18:53.527Z,1.08
2023-04-03T03:20:57.732Z,0.73
2023-04-03T03:22:59.505Z,0.90
2023-04-03T03:25:02.211Z,0.80
2023-04-03T03:27:04.105Z,0.70
2023-04-03T03:29:05.933Z,0.90
2023-04-03T03:31:08.766Z,1.48
2023-04-03T03:33:10.613Z,1.13
2023-04-03T03:35:12.393Z,1.27
2023-04-03T03:37:14.314Z,1.10
2023-04-03T03:39:16.301Z,2.03
2023-04-03T03:41:18.093Z,1.30
2023-04-03T03:43:21.228Z,0.90
2023-04-03T03:45:23.053Z,0.93
2023-04-03T03:47:24.944Z,0.70
2023-04-03T03:49:26.721Z,1.10
2023-04-03T03:51:28.688Z,0.93
2023-04-03T03:53:30.544Z,1.15
2023-04-03T03:55:32.386Z,1.75
2023-04-03T03:57:34.159Z,1.00
2023-04-03T03:59:35.966Z,1.35
2023-04-03T04:01:40.877Z,1.67
2023-04-03T04:03:42.874Z,1.17
2023-04-03T04:05:45.376Z,0.95
2023-04-03T04:07:47.181Z,0.90
2023-04-03T04:09:49.124Z,1.00
2023-04-03T04:11:50.945Z,1.10
2023-04-03T04:13:52.741Z,1.42
2023-04-03T04:15:54.586Z,1.25
2023-04-03T04:17:56.586Z,1.45
2023-04-03T04:19:58.554Z,1.15
2023-04-03T04:22:00.454Z,1.85
2023-04-03T04:24:02.291Z,1.25
2023-04-03T04:26:04.193Z,1.60
2023-04-03T04:28:06.522Z,1.17
2023-04-03T04:30:09.473Z,1.85
2023-04-03T04:32:11.379Z,1.30
2023-04-03T04:34:14.142Z,1.20
2023-04-03T04:36:16.453Z,1.05
2023-04-03T04:38:18.641Z,0.80
2023-04-03T04:40:20.522Z,1.05
2023-04-03T04:42:22.408Z,1.40
2023-04-03T04:44:24.284Z,1.20
2023-04-03T04:46:26.192Z,1.52
2023-04-03T04:48:27.994Z,1.17
2023-04-03T04:50:29.974Z,1.55
2023-04-03T04:52:31.693Z,1.10
2023-04-03T04:54:33.745Z,1.05
2023-04-03T04:56:35.567Z,0.82
2023-04-03T04:58:37.389Z,1.40
2023-04-03T05:00:39.152Z,0.70
2023-04-03T05:02:41.161Z,1.15
2023-04-03T05:04:43.097Z,1.20
2023-04-03T05:06:44.945Z,1.45
2023-04-03T05:08:46.753Z,1.33
2023-04-03T05:10:48.701Z,1.27
2023-04-03T05:12:50.475Z,1.48
2023-04-03T05:14:52.350Z,1.23
2023-04-03T05:16:55.004Z,1.23
2023-04-03T05:18:56.851Z,1.40
2023-04-03T05:20:59.832Z,1.50
2023-04-03T05:23:01.944Z,1.15
2023-04-03T05:25:04.368Z,1.30
2023-04-03T05:27:06.136Z,1.50
2023-04-03T05:29:08.027Z,1.42
2023-04-03T05:31:09.877Z,1.30
2023-04-03T05:33:12.347Z,1.13
2023-04-03T05:35:14.675Z,1.80
2023-04-03T05:37:16.865Z,1.20
2023-04-03T05:39:19.022Z,1.25
2023-04-03T05:41:21.992Z,1.20
2023-04-03T05:43:23.949Z,1.90
2023-04-03T05:45:25.898Z,1.40
2023-04-03T05:47:27.901Z,1.75
2023-04-03T05:49:29.871Z,1.17
2023-04-03T05:51:36.542Z,1.50
2023-04-03T05:53:38.484Z,0.93
2023-04-03T05:55:40.315Z,1.55
2023-04-03T05:57:42.178Z,1.30
2023-04-03T05:59:45.651Z,1.80
2023-04-03T06:01:47.955Z,1.20
2023-04-03T06:03:50.008Z,1.42
2023-04-03T06:05:52.071Z,1.50
2023-04-03T06:07:53.913Z,1.70
2023-04-03T06:09:57.620Z,1.05
2023-04-03T06:11:59.926Z,1.40
2023-04-03T06:14:01.841Z,1.80
2023-04-03T06:16:05.076Z,1.85
2023-04-03T06:18:08.009Z,1.85
2023-04-03T06:20:11.080Z,1.40
2023-04-03T06:22:13.063Z,1.17
2023-04-03T06:24:17.272Z,1.42
2023-04-03T06:26:19.140Z,1.10
2023-04-03T06:28:21.049Z,1.30
2023-04-03T06:30:23.046Z,1.38
2023-04-03T06:32:24.951Z,1.50
2023-04-03T06:34:26.998Z,1.15
2023-04-03T06:36:29.154Z,1.40
2023-04-03T06:38:31.227Z,1.92
2023-04-03T06:40:33.214Z,1.50
2023-04-03T06:42:35.249Z,1.20
2023-04-03T06:44:37.126Z,1.67
2023-04-03T06:46:40.169Z,1.48
2023-04-03T06:48:44.974Z,1.27
2023-04-03T06:50:46.843Z,1.27
2023-04-03T06:52:48.727Z,2.03
2023-04-03T06:54:52.861Z,2.20
2023-04-03T06:56:54.750Z,1.70
2023-04-03T06:58:58.744Z,1.63
2023-04-03T07:01:01.319Z,1.50
2023-04-03T07:03:03.927Z,1.20
2023-04-03T07:05:07.153Z,1.92
2023-04-03T07:07:09.523Z,1.52
2023-04-03T07:09:12.437Z,1.75
2023-04-03T07:11:14.602Z,1.70
2023-04-03T07:13:16.785Z,1.92
2023-04-03T07:15:18.857Z,1.92
2023-04-03T07:17:21.209Z,1.75
2023-04-03T07:19:23.257Z,1.52
2023-04-03T07:21:25.554Z,1.90
2023-04-03T07:23:28.907Z,2.22
2023-04-03T07:25:31.207Z,1.60
2023-04-03T07:27:35.082Z,1.75
2023-04-03T07:29:37.379Z,2.28
2023-04-03T07:31:41.005Z,1.90
2023-04-03T07:33:43.610Z,1.33
2023-04-03T07:35:46.379Z,1.58
2023-04-03T07:37:48.385Z,2.53
2023-04-03T07:39:50.445Z,2.10
2023-04-03T07:41:52.626Z,1.60
2023-04-03T07:43:54.721Z,1.63
2023-04-03T07:45:57.106Z,2.47
2023-04-03T07:47:59.147Z,1.95
2023-04-03T07:50:01.070Z,1.95
2023-04-03T07:52:04.600Z,1.73
2023-04-03T07:54:06.764Z,1.60
2023-04-03T07:56:09.225Z,1.75
2023-04-03T07:58:12.145Z,1.73
2023-04-03T08:00:15.123Z,1.85
2023-04-03T08:02:17.070Z,2.08
2023-04-03T08:04:19.201Z,1.50
2023-04-03T08:06:29.380Z,2.13
2023-04-03T08:08:36.654Z,1.77
2023-04-03T08:10:38.875Z,2.00
2023-04-03T08:12:41.048Z,2.22
2023-04-03T08:14:42.973Z,2.33
2023-04-03T08:16:46.862Z,2.30
2023-04-03T08:18:49.360Z,2.33
2023-04-03T08:20:52.760Z,2.35
2023-04-03T08:22:55.058Z,1.75
2023-04-03T08:24:59.251Z,2.28
2023-04-03T08:27:02.192Z,1.92
2023-04-03T08:29:04.655Z,2.30
2023-04-03T08:31:16.626Z,2.50
2023-04-03T08:33:18.657Z,2.70
2023-04-03T08:35:21.648Z,2.00
2023-04-03T08:37:23.655Z,2.72
2023-04-03T08:39:26.091Z,1.85
2023-04-03T08:41:34.304Z,1.70
2023-04-03T08:43:43.767Z,2.45
2023-04-03T08:45:51.798Z,2.08
2023-04-03T08:48:01.893Z,2.58
2023-04-03T08:50:10.828Z,2.40
2023-04-03T08:52:16.714Z,3.05
2023-04-03T08:54:28.417Z,2.58
2023-04-03T08:56:32.561Z,2.95
2023-04-03T08:58:47.015Z,4.07
2023-04-03T09:00:59.127Z,4.03
2023-04-03T09:03:01.575Z,3.05
2023-04-03T09:05:13.836Z,3.35
2023-04-03T09:07:32.815Z,3.53
2023-04-03T09:09:42.419Z,2.83
2023-04-03T09:11:54.576Z,3.03
2023-04-03T09:14:04.198Z,3.15
2023-04-03T09:16:21.586Z,2.70
2023-04-03T09:18:37.103Z,2.65
2023-04-03T09:20:45.079Z,2.42
2023-04-03T09:22:52.165Z,2.33
2023-04-03T09:25:18.175Z,2.90
2023-04-03T09:27:20.183Z,3.03
2023-04-03T09:29:24.909Z,3.65
2023-04-03T09:31:30.726Z,3.13
2023-04-03T09:33:32.935Z,3.25
2023-04-03T09:35:47.329Z,3.17
2023-04-03T09:37:53.109Z,3.63
2023-04-03T09:39:57.167Z,3.67
2023-04-03T09:42:04.786Z,3.30
2023-04-03T09:44:22.962Z,3.53
2023-04-03T09:46:36.074Z,3.45
2023-04-03T09:48:40.850Z,3.17
2023-04-03T09:50:51.900Z,3.67
2023-04-03T09:52:53.869Z,3.55
2023-04-03T09:55:09.790Z,3.42
2023-04-03T09:57:14.504Z,3.65
2023-04-03T09:59:18.134Z,3.17
2023-04-03T10:01:31.991Z,3.58
2023-04-03T10:03:36.895Z,3.22
2023-04-03T10:05:42.720Z,3.40
2023-04-03T10:07:51.498Z,3.35
2023-04-03T10:10:00.304Z,3.55
2023-04-03T10:12:07.036Z,2.95
2023-04-03T10:14:18.555Z,2.70
2023-04-03T10:16:28.652Z,3.10
2023-04-03T10:18:34.415Z,2.80
2023-04-03T10:20:41.003Z,2.80
2023-04-03T10:22:52.997Z,2.50
2023-04-03T10:25:12.203Z,2.55
2023-04-03T10:27:19.800Z,2.58
2023-04-03T10:29:32.704Z,2.33
2023-04-03T10:31:50.371Z,2.60
2023-04-03T10:34:11.828Z,2.45
2023-04-03T10:36:26.056Z,2.60
2023-04-03T10:38:29.489Z,2.63
2023-04-03T10:40:36.219Z,2.97
2023-04-03T10:42:38.726Z,2.45
2023-04-03T10:44:55.729Z,2.17
2023-04-03T10:47:07.910Z,1.80
2023-04-03T10:49:21.420Z,2.25
2023-04-03T10:51:30.935Z,2.40
2023-04-03T10:53:52.725Z,1.83
2023-04-03T10:56:08.219Z,2.00
2023-04-03T10:58:24.589Z,2.33
2023-04-03T11:00:38.964Z,2.00
2023-04-03T11:03:09.814Z,2.30
2023-04-03T11:05:40.992Z,2.13
2023-04-03T11:07:49.138Z,2.70
2023-04-03T11:09:59.818Z,2.78
2023-04-03T11:12:11.300Z,2.30
2023-04-03T11:14:27.400Z,2.80
2023-04-03T11:16:37.872Z,2.70
2023-04-03T11:18:55.141Z,2.40
2023-04-03T11:21:05.350Z,1.92
2023-04-03T11:23:17.353Z,2.15
2023-04-03T11:25:24.592Z,1.80
2023-04-03T11:27:28.734Z,2.30
2023-04-03T11:29:41.927Z,2.00
2023-04-03T11:31:50.764Z,2.42
2023-04-03T11:34:00.368Z,2.05
2023-04-03T11:36:19.036Z,2.40
2023-04-03T11:38:35.920Z,1.90
2023-04-03T11:40:39.686Z,2.55
2023-04-03T11:42:44.026Z,2.00
2023-04-03T11:44:46.169Z,1.92
2023-04-03T11:46:58.298Z,1.80
2023-04-03T11:49:00.452Z,1.85
2023-04-03T11:51:23.628Z,1.58
2023-04-03T11:53:30.439Z,1.80
2023-04-03T11:55:32.736Z,2.30
2023-04-03T11:57:46.257Z,1.65
2023-04-03T11:59:48.350Z,1.30
2023-04-03T12:01:50.774Z,1.88
2023-04-03T12:03:53.167Z,2.03
2023-04-03T12:06:00.751Z,1.48
2023-04-03T12:08:21.754Z,3.17
2023-04-03T12:12:36.676Z,1.52
2023-04-03T12:14:41.464Z,1.58
2023-04-03T12:16:47.318Z,2.08
2023-04-03T12:18:50.701Z,1.58
2023-04-03T12:20:53.457Z,1.50
2023-04-03T12:23:09.008Z,1.65
2023-04-03T12:25:44.225Z,1.98
2023-04-03T12:27:46.296Z,2.25
2023-04-03T12:29:50.720Z,1.65
2023-04-03T12:32:15.628Z,1.92
2023-04-03T12:34:40.252Z,1.70
2023-04-03T12:36:59.967Z,1.90
2023-04-03T12:39:12.447Z,1.60
2023-04-03T12:41:19.953Z,1.05
2023-04-03T12:43:30.036Z,1.38
2023-04-03T12:45:42.441Z,1.35
2023-04-03T12:47:46.131Z,1.55
2023-04-03T12:49:53.211Z,1.30
2023-04-03T12:51:56.163Z,1.27
2023-04-03T12:54:03.786Z,1.23
2023-04-03T12:56:24.666Z,1.58
2023-04-03T13:00:34.544Z,1.40
2023-04-03T13:02:36.913Z,1.25
2023-04-03T13:04:39.800Z,1.40
2023-04-03T13:06:44.902Z,1.50
2023-04-03T13:08:54.070Z,1.27
2023-04-03T13:11:02.504Z,1.50
2023-04-03T13:13:16.479Z,1.17
2023-04-03T13:15:29.587Z,1.30
2023-04-03T13:17:33.225Z,1.10
2023-04-03T13:19:35.562Z,1.60
2023-04-03T13:21:37.766Z,1.17
2023-04-03T13:23:46.023Z,1.40
2023-04-03T13:25:49.452Z,1.25
2023-04-03T13:27:53.834Z,1.38
2023-04-03T13:30:02.696Z,1.58
2023-04-03T13:32:06.705Z,1.50
2023-04-03T13:34:12.595Z,1.23
2023-04-03T13:36:21.681Z,1.10
2023-04-03T13:38:32.590Z,0.93
2023-04-03T13:40:47.050Z,1.27
2023-04-03T13:43:01.328Z,1.35
2023-04-03T13:45:21.060Z,0.93
2023-04-03T13:47:25.758Z,1.45
2023-04-03T13:49:37.168Z,1.40
2023-04-03T13:51:40.304Z,1.65
2023-04-03T13:53:49.669Z,1.20
2023-04-03T13:55:58.695Z,1.52
2023-04-03T13:58:10.159Z,1.42
2023-04-03T14:00:30.694Z,1.48
2023-04-03T14:02:34.760Z,1.65
2023-04-03T14:04:45.358Z,1.42
2023-04-03T14:08:50.364Z,1.25
2023-04-03T14:10:52.888Z,1.30
2023-04-03T14:12:54.886Z,1.50
2023-04-03T14:14:57.243Z,1.55
2023-04-03T14:17:02.585Z,1.25
2023-04-03T14:19:04.847Z,1.70
2023-04-03T14:21:06.961Z,1.67
2023-04-03T14:23:10.290Z,1.65
2023-04-03T14:25:13.291Z,1.75
2023-04-03T14:27:28.201Z,1.95
2023-04-03T14:29:30.090Z,1.73
2023-04-03T14:31:32.184Z,2.13
2023-04-03T14:33:36.859Z,1.98
2023-04-03T14:35:38.856Z,1.90
2023-04-03T14:37:41.338Z,1.67
2023-04-03T14:39:43.993Z,2.00
2023-04-03T14:41:49.430Z,1.90
2023-04-03T14:43:54.569Z,1.45
2023-04-03T14:45:56.763Z,1.60
2023-04-03T14:48:00.152Z,1.48
2023-04-03T14:50:04.327Z,1.90
2023-04-03T14:52:06.968Z,1.95
2023-04-03T14:54:22.692Z,1.85
2023-04-03T14:56:28.418Z,1.35
2023-04-03T14:58:33.008Z,1.88
2023-04-03T15:00:35.218Z,2.25
2023-04-03T15:02:39.940Z,2.47
2023-04-03T15:04:42.226Z,2.08
2023-04-03T15:06:45.247Z,2.25
2023-04-03T15:08:48.746Z,2.10
2023-04-03T15:10:51.209Z,1.85
2023-04-03T15:12:53.686Z,1.92
2023-04-03T15:15:01.138Z,2.22
2023-04-03T15:17:07.252Z,2.20
2023-04-03T15:19:09.282Z,2.28
2023-04-03T15:21:11.712Z,2.22
2023-04-03T15:23:16.969Z,2.50
2023-04-03T15:25:19.391Z,1.80
2023-04-03T15:27:21.460Z,2.25
2023-04-03T15:29:23.431Z,1.88
2023-04-03T15:31:25.447Z,2.35
2023-04-03T15:33:27.540Z,2.05
2023-04-03T15:35:29.618Z,2.10
2023-04-03T15:37:31.960Z,1.90
2023-04-03T15:39:34.000Z,2.00
2023-04-03T15:41:36.323Z,1.35
2023-04-03T15:43:38.261Z,1.50
2023-04-03T15:45:41.924Z,1.70
2023-04-03T15:47:44.377Z,1.02
2023-04-03T15:49:46.478Z,1.30
2023-04-03T15:51:48.431Z,1.38
2023-04-03T15:53:50.696Z,1.35
2023-04-03T15:55:52.625Z,1.55
2023-04-03T15:57:55.157Z,1.60
2023-04-03T15:59:57.741Z,1.67
2023-04-03T16:02:02.549Z,1.35
2023-04-03T16:04:05.679Z,1.70
2023-04-03T16:06:10.724Z,1.80
2023-04-03T16:08:13.676Z,1.70
2023-04-03T16:10:18.320Z,1.88
2023-04-03T16:12:20.620Z,1.77
2023-04-03T16:14:22.593Z,1.30
2023-04-03T16:16:28.401Z,1.52
2023-04-03T16:18:35.448Z,1.10
2023-04-03T16:20:38.522Z,1.92
2023-04-03T16:22:41.457Z,1.35
2023-04-03T16:24:43.577Z,1.40
2023-04-03T16:26:45.837Z,1.17
2023-04-03T16:28:47.924Z,1.67
2023-04-03T16:30:50.721Z,1.42
2023-04-03T16:32:53.097Z,0.98
2023-04-03T16:34:55.101Z,1.30
2023-04-03T16:36:57.312Z,1.55
2023-04-03T16:38:59.288Z,1.05
2023-04-03T16:41:05.505Z,2.17
2023-04-03T16:43:07.592Z,1.40
2023-04-03T16:45:10.174Z,1.30
2023-04-03T16:47:13.957Z,1.20
2023-04-03T16:49:16.789Z,1.38
2023-04-03T16:51:18.890Z,0.63
2023-04-03T16:53:22.069Z,1.00
2023-04-03T16:55:24.129Z,1.00
2023-04-03T16:57:26.237Z,1.30
2023-04-03T16:59:28.450Z,1.25
2023-04-03T17:01:30.750Z,1.08
2023-04-03T17:03:33.580Z,1.00
2023-04-03T17:05:36.080Z,0.73
2023-04-03T17:07:38.167Z,1.30
2023-04-03T17:09:40.114Z,1.65
2023-04-03T17:11:42.697Z,0.95
2023-04-03T17:13:46.984Z,1.00
2023-04-03T17:15:49.309Z,0.98
2023-04-03T17:17:53.354Z,1.48
2023-04-03T17:19:56.761Z,0.80
2023-04-03T17:21:59.503Z,0.88
2023-04-03T17:24:04.683Z,1.20
2023-04-03T17:26:06.809Z,1.25
2023-04-03T17:28:09.054Z,1.17
2023-04-03T17:30:11.841Z,1.58
2023-04-03T17:32:13.971Z,1.27
2023-04-03T17:34:16.255Z,1.40
2023-04-03T17:36:18.373Z,0.85
2023-04-03T17:38:20.389Z,1.20
2023-04-03T17:40:22.343Z,0.98
2023-04-03T17:42:24.307Z,1.40
2023-04-03T17:44:26.451Z,1.40
2023-04-03T17:46:28.646Z,1.27
2023-04-03T17:48:32.347Z,1.10
2023-04-03T17:50:34.373Z,1.95
2023-04-03T17:52:36.430Z,0.93
2023-04-03T17:54:38.468Z,1.00
2023-04-03T17:56:40.589Z,1.17
2023-04-03T17:58:42.862Z,1.20
2023-04-03T18:00:45.126Z,1.45
2023-04-03T18:02:47.116Z,0.93
2023-04-03T18:04:53.282Z,0.90
2023-04-03T18:06:56.177Z,1.23
2023-04-03T18:09:09.089Z,1.10
2023-04-03T18:11:11.447Z,1.00
2023-04-03T18:13:14.843Z,1.40
2023-04-03T18:15:17.982Z,1.00
2023-04-03T18:17:19.951Z,1.27
2023-04-03T18:19:23.463Z,1.73
2023-04-03T18:21:26.144Z,1.30
2023-04-03T18:23:31.325Z,1.17
2023-04-03T18:27:40.787Z,1.10
2023-04-03T18:29:45.598Z,1.58
2023-04-03T18:31:53.032Z,2.05
2023-04-03T18:33:59.135Z,2.42
2023-04-03T18:36:05.066Z,1.48
2023-04-03T18:38:07.101Z,1.30
2023-04-03T18:40:10.412Z,1.33
2023-04-03T18:42:17.250Z,1.75
2023-04-03T18:44:23.058Z,1.00
2023-04-03T18:46:25.204Z,1.15
2023-04-03T18:48:28.152Z,2.08
2023-04-03T18:50:31.888Z,2.33
2023-04-03T18:52:34.241Z,2.45
2023-04-03T18:54:37.553Z,2.65
2023-04-03T18:56:39.583Z,1.73
2023-04-03T18:58:41.663Z,1.83
2023-04-03T19:00:43.818Z,2.08
2023-04-03T19:02:46.391Z,1.48
2023-04-03T19:04:48.931Z,1.80
2023-04-03T19:06:51.773Z,2.10
2023-04-03T19:08:54.030Z,2.25
2023-04-03T19:10:56.076Z,2.35
2023-04-03T19:12:58.178Z,2.35
2023-04-03T19:15:00.198Z,2.10
2023-04-03T19:17:04.212Z,2.50
2023-04-03T19:19:06.667Z,2.22
2023-04-03T19:21:08.789Z,2.28
2023-04-03T19:23:10.993Z,2.30
2023-04-03T19:25:13.310Z,2.25
2023-04-03T19:27:15.392Z,2.20
2023-04-03T19:29:18.061Z,2.85
2023-04-03T19:31:22.390Z,3.22
2023-04-03T19:33:25.875Z,2.70
2023-04-03T19:35:28.045Z,2.80
2023-04-03T19:37:30.573Z,1.85
2023-04-03T19:39:35.367Z,1.30
2023-04-03T19:41:38.318Z,2.47
2023-04-03T19:43:40.538Z,2.10
2023-04-03T19:45:44.138Z,2.08
2023-04-03T19:47:47.310Z,1.95
2023-04-03T19:49:49.493Z,1.40
2023-04-03T19:51:51.546Z,1.60
2023-04-03T19:53:53.756Z,1.50
2023-04-03T19:55:57.437Z,1.70
2023-04-03T19:58:00.904Z,1.83
2023-04-03T20:00:03.272Z,1.98
2023-04-03T20:02:05.690Z,2.53
2023-04-03T20:04:08.263Z,2.97
2023-04-03T20:06:10.359Z,2.67
2023-04-03T20:08:12.628Z,2.20
2023-04-03T20:10:16.456Z,3.00
2023-04-03T20:12:18.738Z,1.92
2023-04-03T20:14:21.104Z,1.60
2023-04-03T20:16:26.071Z,1.95
2023-04-03T20:18:28.923Z,2.10
2023-04-03T20:20:31.192Z,2.53
2023-04-03T20:22:39.870Z,1.60
2023-04-03T20:24:42.114Z,2.15
2023-04-03T20:26:46.562Z,1.25
2023-04-03T20:28:48.970Z,1.38
2023-04-03T20:30:52.686Z,1.50
2023-04-03T20:32:55.965Z,1.30
2023-04-03T20:35:04.460Z,1.33
2023-04-03T20:37:07.087Z,2.22
2023-04-03T20:39:09.444Z,1.60
2023-04-03T20:41:11.561Z,1.75
2023-04-03T20:43:13.658Z,1.75
2023-04-03T20:45:15.838Z,1.38
2023-04-03T20:47:18.454Z,1.60
2023-04-03T20:49:21.339Z,1.58
2023-04-03T20:51:24.351Z,2.03
2023-04-03T20:53:27.393Z,1.42
2023-04-03T20:55:30.117Z,1.63
2023-04-03T20:57:33.982Z,1.73
2023-04-03T20:59:39.617Z,1.63
2023-04-03T21:01:41.733Z,1.70
2023-04-03T21:03:46.444Z,1.98
2023-04-03T21:05:48.517Z,1.70
2023-04-03T21:08:10.952Z,1.58
2023-04-03T21:10:32.643Z,1.17
2023-04-03T21:12:53.532Z,1.27
2023-04-03T21:15:14.847Z,1.63
2023-04-03T21:17:16.893Z,1.90
2023-04-03T21:19:20.505Z,1.80
2023-04-03T21:21:24.747Z,1.60
2023-04-03T21:23:28.582Z,1.92
2023-04-03T21:25:30.975Z,1.50
2023-04-03T21:27:32.923Z,1.73
2023-04-03T21:29:34.938Z,1.83
2023-04-03T21:31:58.071Z,1.40
2023-04-03T21:34:00.911Z,1.48
2023-04-03T21:36:03.501Z,1.70
2023-04-03T21:38:05.936Z,1.60
2023-04-03T21:40:08.686Z,1.90
2023-04-03T21:42:10.654Z,2.00
2023-04-03T21:44:12.645Z,1.35
2023-04-03T21:46:14.591Z,1.35
2023-04-03T21:48:20.636Z,1.92
2023-04-03T21:50:22.625Z,1.85
2023-04-03T21:52:24.641Z,2.03
2023-04-03T21:54:26.672Z,1.55
2023-04-03T21:56:29.052Z,1.50
2023-04-03T21:58:32.537Z,1.60
2023-04-03T22:00:34.747Z,1.50
2023-04-03T22:02:41.111Z,1.50
2023-04-03T22:04:43.203Z,1.77
2023-04-03T22:06:46.032Z,1.95
2023-04-03T22:08:48.176Z,2.35
2023-04-03T22:10:50.160Z,1.67
2023-04-03T22:12:52.593Z,1.73
2023-04-03T22:14:54.605Z,2.00
2023-04-03T22:16:57.923Z,2.38
2023-04-03T22:18:59.949Z,2.05
2023-04-03T22:21:02.179Z,2.35
2023-04-03T22:23:04.924Z,1.70
2023-04-03T22:25:07.796Z,2.00
2023-04-03T22:27:09.736Z,1.90
2023-04-03T22:29:13.317Z,1.77
2023-04-03T22:31:16.543Z,2.03
2023-04-03T22:33:18.935Z,2.05
2023-04-03T22:35:21.603Z,1.98
2023-04-03T22:37:23.515Z,2.00
2023-04-03T22:39:25.379Z,1.67
2023-04-03T22:41:27.360Z,2.30
2023-04-03T22:43:33.595Z,1.58
2023-04-03T22:45:35.718Z,1.60
2023-04-03T22:47:38.089Z,1.60
2023-04-03T22:49:40.009Z,1.70
2023-04-03T22:51:41.969Z,1.35
2023-04-03T22:53:43.956Z,1.67
2023-04-03T22:55:55.564Z,1.67
2023-04-03T22:57:57.512Z,1.85
2023-04-03T22:59:59.357Z,1.52
2023-04-03T23:02:01.632Z,1.80
2023-04-03T23:04:03.883Z,1.60
2023-04-03T23:06:06.714Z,1.52
2023-04-03T23:08:08.683Z,1.67
2023-04-03T23:10:12.080Z,1.33
2023-04-03T23:12:14.026Z,2.05
2023-04-03T23:14:15.929Z,1.80
2023-04-03T23:16:19.260Z,1.92
2023-04-03T23:18:21.886Z,1.67
2023-04-03T23:20:23.933Z,1.67
2023-04-03T23:22:26.059Z,2.08
2023-04-03T23:24:28.392Z,1.60
2023-04-03T23:26:30.415Z,1.45
2023-04-03T23:28:33.570Z,1.98
2023-04-03T23:30:35.621Z,1.85
2023-04-03T23:32:37.657Z,1.52
2023-04-03T23:34:39.638Z,2.25
2023-04-03T23:36:41.647Z,1.60
2023-04-03T23:38:43.582Z,1.80
2023-04-03T23:40:46.406Z,1.90
2023-04-03T23:42:48.393Z,2.00
2023-04-03T23:44:50.270Z,1.83
2023-04-03T23:46:52.271Z,1.60
2023-04-03T23:48:54.095Z,2.10
2023-04-03T23:50:56.325Z,2.30
2023-04-03T23:52:58.338Z,1.95
2023-04-03T23:55:00.199Z,1.88
2023-04-03T23:57:02.061Z,1.60
2023-04-03T23:59:04.063Z,1.38
